createdAt,value
2022-11-26T00:00:30.560Z,13.38
2022-11-26T00:02:58.605Z,19.95
2022-11-26T00:05:31.015Z,17.52
2022-11-26T00:08:00.524Z,23.67
2022-11-26T00:10:32.321Z,19.75
2022-11-26T00:13:00.046Z,19.23
2022-11-26T00:15:29.539Z,23.40
2022-11-26T00:17:57.804Z,26.17
2022-11-26T00:20:30.312Z,20.50
2022-11-26T00:23:01.343Z,23.13
2022-11-26T00:25:39.603Z,22.08
2022-11-26T00:28:24.113Z,20.85
2022-11-26T00:30:51.893Z,24.50
2022-11-26T00:33:19.582Z,21.33
2022-11-26T00:35:54.914Z,18.33
2022-11-26T00:38:23.272Z,23.25
2022-11-26T00:40:52.381Z,21.58
2022-11-26T00:43:21.246Z,24.20
2022-11-26T00:45:50.471Z,18.95
2022-11-26T00:48:19.147Z,23.15
2022-11-26T00:50:49.663Z,23.65
2022-11-26T00:53:20.361Z,29.20
2022-11-26T00:55:50.848Z,23.92
2022-11-26T00:58:28.296Z,19.85
2022-11-26T01:00:57.184Z,19.02
2022-11-26T01:03:25.665Z,25.08
2022-11-26T01:05:55.573Z,22.25
2022-11-26T01:08:30.645Z,29.33
2022-11-26T01:10:58.759Z,21.83
2022-11-26T01:13:28.544Z,22.10
2022-11-26T01:15:56.575Z,30.13
2022-11-26T01:18:24.900Z,28.75
2022-11-26T01:20:52.836Z,27.42
2022-11-26T01:23:21.233Z,27.48
2022-11-26T01:25:49.043Z,24.20
2022-11-26T01:28:18.731Z,28.02
2022-11-26T01:30:47.919Z,23.15
2022-11-26T01:33:15.637Z,24.27
2022-11-26T01:35:43.319Z,29.70
2022-11-26T01:38:13.777Z,22.08
2022-11-26T01:41:00.936Z,28.70
2022-11-26T01:43:30.134Z,19.73
2022-11-26T01:45:59.094Z,22.02
2022-11-26T01:48:29.842Z,25.73
2022-11-26T01:51:00.329Z,21.67
2022-11-26T01:53:35.929Z,26.17
2022-11-26T01:56:06.888Z,20.98
2022-11-26T01:58:40.119Z,22.83
2022-11-26T02:01:10.187Z,31.67
2022-11-26T02:03:42.757Z,30.05
2022-11-26T02:06:15.115Z,22.40
2022-11-26T02:08:43.529Z,23.00
2022-11-26T02:11:17.803Z,23.67
2022-11-26T02:13:47.397Z,22.33
2022-11-26T02:16:24.556Z,24.88
2022-11-26T02:19:01.361Z,21.30
2022-11-26T02:21:29.542Z,32.03
2022-11-26T02:24:18.840Z,30.65
2022-11-26T02:27:29.634Z,28.48
2022-11-26T02:30:07.069Z,23.58
2022-11-26T02:32:41.987Z,23.63
2022-11-26T02:35:15.844Z,23.17
2022-11-26T02:37:47.929Z,22.35
2022-11-26T02:40:15.611Z,20.90
2022-11-26T02:42:43.250Z,22.65
2022-11-26T02:45:15.332Z,23.80
2022-11-26T02:47:46.689Z,41.75
2022-11-26T02:50:19.798Z,26.73
2022-11-26T02:52:49.457Z,29.48
2022-11-26T02:55:21.308Z,31.83
2022-11-26T02:57:51.641Z,36.63
2022-11-26T03:00:22.058Z,42.20
2022-11-26T03:02:52.176Z,50.22
2022-11-26T03:05:20.748Z,30.52
2022-11-26T03:07:52.470Z,38.17
2022-11-26T03:10:25.496Z,35.88
2022-11-26T03:12:53.058Z,41.78
2022-11-26T03:15:22.102Z,55.30
2022-11-26T03:17:49.761Z,41.05
2022-11-26T03:20:17.731Z,54.55
2022-11-26T03:22:45.636Z,49.38
2022-11-26T03:25:14.175Z,25.65
2022-11-26T03:27:41.888Z,31.40
2022-11-26T03:30:10.493Z,47.90
2022-11-26T03:32:39.440Z,44.78
2022-11-26T03:35:07.427Z,23.13
2022-11-26T03:37:38.293Z,54.92
2022-11-26T03:40:07.792Z,76.05
2022-11-26T03:42:35.681Z,36.22
2022-11-26T03:45:04.194Z,63.42
2022-11-26T03:47:31.745Z,42.30
2022-11-26T03:50:00.715Z,38.28
2022-11-26T03:52:28.297Z,44.95
2022-11-26T03:54:55.872Z,29.80
2022-11-26T03:57:23.616Z,43.15
2022-11-26T03:59:51.199Z,51.65
2022-11-26T04:02:18.813Z,40.15
2022-11-26T04:04:46.448Z,20.98
2022-11-26T04:07:15.364Z,29.50
2022-11-26T04:09:42.952Z,41.03
2022-11-26T04:12:10.536Z,36.20
2022-11-26T04:14:38.600Z,27.75
2022-11-26T04:17:06.435Z,21.85
2022-11-26T04:19:34.156Z,25.90
2022-11-26T04:22:01.776Z,24.80
2022-11-26T04:24:31.289Z,25.33
2022-11-26T04:26:58.901Z,18.15
2022-11-26T04:29:26.643Z,36.33
2022-11-26T04:31:54.299Z,32.78
2022-11-26T04:34:21.947Z,25.10
2022-11-26T04:36:49.558Z,65.80
2022-11-26T04:39:17.137Z,61.35
2022-11-26T04:41:46.115Z,31.27
2022-11-26T04:44:13.934Z,32.08
2022-11-26T04:46:41.509Z,24.27
2022-11-26T04:49:09.191Z,33.88
2022-11-26T04:51:36.792Z,19.02
2022-11-26T04:54:08.628Z,33.80
2022-11-26T04:56:39.141Z,23.33
2022-11-26T04:59:08.146Z,41.10
2022-11-26T05:01:35.943Z,35.55
2022-11-26T05:04:04.009Z,56.28
2022-11-26T05:06:31.639Z,43.05
2022-11-26T05:08:59.386Z,41.65
2022-11-26T05:11:27.045Z,24.88
2022-11-26T05:13:54.643Z,30.60
2022-11-26T05:16:23.609Z,20.20
2022-11-26T05:18:51.219Z,30.90
2022-11-26T05:21:18.879Z,20.80
2022-11-26T05:23:46.467Z,40.00
2022-11-26T05:26:14.134Z,34.95
2022-11-26T05:28:41.805Z,34.67
2022-11-26T05:31:09.487Z,27.33
2022-11-26T05:33:38.832Z,35.47
2022-11-26T05:36:06.706Z,53.88
2022-11-26T05:38:34.557Z,40.33
2022-11-26T05:41:02.246Z,22.45
2022-11-26T05:43:29.880Z,62.72
2022-11-26T05:45:57.583Z,49.15
2022-11-26T05:48:25.191Z,26.27
2022-11-26T05:50:59.180Z,26.40
2022-11-26T05:53:27.414Z,43.95
2022-11-26T05:55:55.380Z,33.65
2022-11-26T05:58:22.935Z,37.00
2022-11-26T06:00:51.004Z,40.08
2022-11-26T06:03:20.483Z,45.45
2022-11-26T06:05:48.582Z,27.30
2022-11-26T06:08:17.568Z,42.58
2022-11-26T06:10:45.994Z,35.67
2022-11-26T06:13:14.089Z,26.90
2022-11-26T06:15:41.875Z,36.75
2022-11-26T06:18:09.594Z,57.38
2022-11-26T06:20:37.934Z,48.45
2022-11-26T06:23:05.994Z,36.25
2022-11-26T06:25:34.856Z,30.77
2022-11-26T06:28:02.698Z,34.45
2022-11-26T06:30:30.426Z,31.70
2022-11-26T06:32:58.046Z,47.78
2022-11-26T06:35:25.637Z,27.45
2022-11-26T06:37:53.208Z,33.33
2022-11-26T06:40:21.438Z,36.63
2022-11-26T06:42:51.645Z,59.03
2022-11-26T06:45:19.360Z,27.52
2022-11-26T06:47:47.769Z,26.35
2022-11-26T06:50:16.223Z,26.98
2022-11-26T06:52:43.973Z,29.52
2022-11-26T06:55:11.825Z,45.70
2022-11-26T06:57:39.513Z,30.65
2022-11-26T07:00:10.063Z,23.00
2022-11-26T07:02:38.260Z,31.90
2022-11-26T07:05:06.092Z,24.17
2022-11-26T07:07:33.711Z,44.65
2022-11-26T07:10:01.304Z,35.53
2022-11-26T07:12:28.894Z,47.15
2022-11-26T07:14:56.499Z,57.05
2022-11-26T07:17:25.591Z,28.38
2022-11-26T07:19:53.181Z,34.88
2022-11-26T07:22:20.803Z,46.90
2022-11-26T07:24:48.435Z,34.80
2022-11-26T07:27:16.166Z,29.73
2022-11-26T07:29:44.046Z,54.85
2022-11-26T07:32:11.760Z,31.85
2022-11-26T07:34:41.021Z,25.65
2022-11-26T07:37:08.801Z,26.02
2022-11-26T07:39:36.349Z,28.70
2022-11-26T07:42:03.900Z,25.85
2022-11-26T07:44:32.599Z,23.67
2022-11-26T07:47:00.499Z,22.52
2022-11-26T07:49:28.215Z,25.38
2022-11-26T07:51:57.424Z,21.77
2022-11-26T07:54:25.036Z,26.35
2022-11-26T07:56:52.613Z,26.23
2022-11-26T07:59:20.209Z,27.08
2022-11-26T08:01:48.242Z,43.88
2022-11-26T08:04:16.197Z,26.00
2022-11-26T08:06:45.088Z,28.33
2022-11-26T08:09:14.217Z,24.98
2022-11-26T08:11:41.799Z,29.63
2022-11-26T08:14:16.016Z,25.30
2022-11-26T08:16:44.220Z,29.80
2022-11-26T08:19:14.347Z,24.85
2022-11-26T08:21:45.748Z,27.38
2022-11-26T08:24:17.125Z,22.75
2022-11-26T08:26:49.549Z,27.60
2022-11-26T08:29:17.168Z,24.13
2022-11-26T08:31:46.722Z,31.27
2022-11-26T08:34:16.046Z,27.35
2022-11-26T08:36:44.439Z,22.50
2022-11-26T08:39:15.129Z,25.17
2022-11-26T08:41:47.343Z,28.05
2022-11-26T08:44:18.190Z,22.60
2022-11-26T08:46:45.705Z,21.33
2022-11-26T08:49:14.835Z,20.92
2022-11-26T08:51:43.283Z,20.13
2022-11-26T08:54:11.512Z,24.77
2022-11-26T08:56:40.562Z,22.20
2022-11-26T08:59:08.223Z,24.25
2022-11-26T09:01:36.200Z,24.17
2022-11-26T09:04:05.254Z,22.40
2022-11-26T09:06:36.720Z,23.90
2022-11-26T09:09:15.456Z,26.75
2022-11-26T09:11:47.524Z,26.00
2022-11-26T09:14:16.822Z,22.42
2022-11-26T09:16:44.555Z,23.33
2022-11-26T09:19:13.689Z,25.73
2022-11-26T09:21:41.405Z,24.42
2022-11-26T09:24:09.114Z,22.23
2022-11-26T09:26:36.786Z,25.67
2022-11-26T09:29:05.687Z,23.15
2022-11-26T09:31:33.825Z,26.05
2022-11-26T09:34:02.897Z,20.90
2022-11-26T09:36:31.065Z,22.52
2022-11-26T09:39:00.050Z,23.58
2022-11-26T09:41:40.497Z,17.48
2022-11-26T09:44:29.834Z,16.05
2022-11-26T09:47:14.318Z,17.67
2022-11-26T09:49:52.452Z,17.80
2022-11-26T09:52:23.690Z,17.58
2022-11-26T09:55:03.497Z,19.60
2022-11-26T09:57:39.594Z,18.85
2022-11-26T10:00:22.182Z,19.08
2022-11-26T10:02:52.944Z,19.00
2022-11-26T10:05:21.790Z,18.13
2022-11-26T10:08:02.760Z,19.67
2022-11-26T10:10:37.923Z,17.83
2022-11-26T10:13:20.003Z,14.32
2022-11-26T10:16:04.532Z,16.00
2022-11-26T10:18:41.421Z,14.02
2022-11-26T10:21:27.342Z,18.50
2022-11-26T10:24:15.842Z,23.73
2022-11-26T10:26:44.479Z,19.27
2022-11-26T10:29:22.053Z,25.63
2022-11-26T10:31:54.350Z,20.73
2022-11-26T10:34:32.259Z,15.77
2022-11-26T10:37:05.253Z,17.48
2022-11-26T10:39:33.008Z,27.75
2022-11-26T10:42:05.354Z,16.33
2022-11-26T10:44:36.884Z,25.48
2022-11-26T10:47:27.922Z,21.55
2022-11-26T10:49:58.361Z,18.13
2022-11-26T10:52:28.847Z,22.50
2022-11-26T10:55:20.777Z,24.02
2022-11-26T10:57:52.240Z,18.48
2022-11-26T11:00:34.143Z,18.67
2022-11-26T11:03:05.269Z,23.08
2022-11-26T11:05:34.459Z,19.27
2022-11-26T11:08:02.227Z,17.77
2022-11-26T11:10:30.125Z,21.30
2022-11-26T11:13:12.608Z,18.85
2022-11-26T11:15:41.840Z,19.17
2022-11-26T11:18:19.493Z,23.05
2022-11-26T11:20:54.957Z,29.75
2022-11-26T11:23:40.093Z,24.77
2022-11-26T11:26:18.437Z,25.42
2022-11-26T11:28:49.250Z,26.77
2022-11-26T11:31:20.090Z,27.98
2022-11-26T11:33:50.301Z,26.10
2022-11-26T11:36:25.647Z,27.42
2022-11-26T11:38:54.910Z,19.02
2022-11-26T11:41:28.186Z,25.73
2022-11-26T11:44:07.138Z,33.45
2022-11-26T11:46:59.547Z,27.88
2022-11-26T11:49:40.099Z,32.60
2022-11-26T11:52:17.755Z,33.53
2022-11-26T11:54:56.423Z,30.15
2022-11-26T11:57:38.208Z,25.88
2022-11-26T12:00:13.304Z,24.10
2022-11-26T12:03:04.040Z,26.25
2022-11-26T12:05:41.985Z,27.95
2022-11-26T12:08:24.755Z,28.42
2022-11-26T12:11:05.028Z,21.58
2022-11-26T12:13:37.578Z,24.70
2022-11-26T12:16:09.696Z,24.05
2022-11-26T12:18:43.231Z,23.67
2022-11-26T12:21:14.349Z,26.05
2022-11-26T12:23:49.025Z,21.05
2022-11-26T12:26:21.515Z,25.55
2022-11-26T12:28:59.407Z,25.77
2022-11-26T12:31:33.800Z,26.45
2022-11-26T12:34:08.783Z,22.00
2022-11-26T12:36:46.082Z,25.98
2022-11-26T12:39:19.465Z,26.52
2022-11-26T12:41:54.117Z,25.67
2022-11-26T12:44:28.759Z,28.08
2022-11-26T12:47:02.699Z,25.27
2022-11-26T12:49:36.608Z,23.80
2022-11-26T12:52:17.186Z,26.10
2022-11-26T12:54:54.145Z,25.45
2022-11-26T12:57:25.942Z,24.10
2022-11-26T12:59:59.884Z,25.13
2022-11-26T13:02:31.391Z,27.40
2022-11-26T13:04:59.947Z,25.67
2022-11-26T13:07:45.648Z,22.02
2022-11-26T13:10:27.785Z,30.08
2022-11-26T13:13:06.392Z,30.90
2022-11-26T13:15:47.241Z,24.08
2022-11-26T13:18:19.912Z,37.25
2022-11-26T13:21:06.148Z,31.05
2022-11-26T13:23:52.256Z,32.53
2022-11-26T13:26:29.799Z,32.20
2022-11-26T13:29:28.864Z,30.50
2022-11-26T13:32:14.697Z,42.05
2022-11-26T13:35:03.751Z,38.63
2022-11-26T13:38:04.813Z,32.40
2022-11-26T13:41:01.119Z,34.78
2022-11-26T13:43:59.811Z,29.50
2022-11-26T13:46:30.472Z,32.03
2022-11-26T13:49:05.280Z,28.23
2022-11-26T13:51:40.340Z,28.92
2022-11-26T13:54:13.997Z,32.63
2022-11-26T13:56:47.797Z,30.75
2022-11-26T13:59:28.857Z,33.95
2022-11-26T14:01:57.129Z,27.38
2022-11-26T14:04:52.734Z,30.33
2022-11-26T14:07:21.799Z,30.00
2022-11-26T14:09:57.766Z,29.58
2022-11-26T14:13:08.017Z,24.00
2022-11-26T14:16:05.327Z,28.80
2022-11-26T14:19:00.820Z,23.35
2022-11-26T14:21:31.757Z,30.83
2022-11-26T14:24:01.428Z,26.50
2022-11-26T14:26:34.049Z,27.20
2022-11-26T14:29:13.179Z,27.88
2022-11-26T14:31:44.153Z,27.15
2022-11-26T14:34:16.925Z,26.67
2022-11-26T14:36:54.421Z,27.70
2022-11-26T14:39:22.489Z,27.48
2022-11-26T14:41:57.890Z,28.15
2022-11-26T14:44:31.518Z,29.77
2022-11-26T14:47:02.113Z,27.60
2022-11-26T14:49:36.855Z,28.65
2022-11-26T14:52:22.659Z,30.20
2022-11-26T14:54:53.907Z,28.88
2022-11-26T14:57:26.234Z,35.25
2022-11-26T15:00:04.050Z,26.77
2022-11-26T15:02:32.554Z,32.20
2022-11-26T15:05:02.522Z,26.83
2022-11-26T15:07:31.724Z,32.80
2022-11-26T15:10:08.446Z,29.77
2022-11-26T15:12:37.140Z,26.38
2022-11-26T15:15:08.216Z,31.02
2022-11-26T15:17:36.286Z,33.83
2022-11-26T15:20:08.778Z,33.38
2022-11-26T15:22:39.127Z,31.10
2022-11-26T15:25:17.294Z,31.48
2022-11-26T15:27:53.011Z,31.15
2022-11-26T15:30:25.735Z,32.42
2022-11-26T15:33:01.542Z,36.03
2022-11-26T15:35:30.369Z,35.65
2022-11-26T15:37:58.162Z,37.25
2022-11-26T15:40:32.341Z,28.92
2022-11-26T15:43:03.658Z,32.35
2022-11-26T15:45:40.264Z,36.58
2022-11-26T15:48:27.657Z,32.88
2022-11-26T15:51:06.261Z,34.53
2022-11-26T15:53:36.810Z,31.42
2022-11-26T15:56:09.208Z,34.72
2022-11-26T15:58:40.393Z,37.67
2022-11-26T16:01:18.032Z,34.85
2022-11-26T16:03:47.858Z,36.40
2022-11-26T16:06:29.184Z,39.80
2022-11-26T16:09:06.438Z,41.38
2022-11-26T16:11:37.045Z,31.58
2022-11-26T16:14:24.801Z,36.97
2022-11-26T16:16:54.256Z,39.28
2022-11-26T16:19:23.025Z,35.22
2022-11-26T16:21:53.232Z,39.65
2022-11-26T16:24:27.501Z,48.08
2022-11-26T16:26:58.509Z,40.17
2022-11-26T16:29:26.582Z,39.58
2022-11-26T16:31:56.041Z,38.40
2022-11-26T16:34:26.016Z,44.30
2022-11-26T16:37:01.841Z,36.88
2022-11-26T16:42:23.110Z,42.97
2022-11-26T16:44:51.050Z,41.35
2022-11-26T16:47:24.908Z,42.78
2022-11-26T16:49:53.745Z,44.83
2022-11-26T16:52:21.988Z,44.08
2022-11-26T16:54:50.239Z,32.78
2022-11-26T16:57:20.516Z,42.05
2022-11-26T16:59:50.870Z,42.78
2022-11-26T17:02:22.111Z,36.42
2022-11-26T17:04:50.608Z,33.13
2022-11-26T17:07:22.087Z,38.08
2022-11-26T17:09:50.204Z,39.72
2022-11-26T17:12:20.141Z,39.75
2022-11-26T17:14:48.487Z,38.22
2022-11-26T17:17:20.628Z,37.50
2022-11-26T17:19:53.069Z,42.35
2022-11-26T17:22:21.676Z,38.97
2022-11-26T17:24:49.644Z,37.45
2022-11-26T17:27:19.708Z,38.42
2022-11-26T17:29:48.795Z,41.60
2022-11-26T17:32:29.746Z,42.72
2022-11-26T17:35:01.691Z,44.20
2022-11-26T17:37:30.785Z,40.17
2022-11-26T17:40:01.798Z,34.33
2022-11-26T17:42:33.583Z,38.45
2022-11-26T17:45:07.724Z,37.70
2022-11-26T17:47:35.380Z,42.47
2022-11-26T17:50:05.152Z,37.97
2022-11-26T17:52:32.723Z,40.67
2022-11-26T17:55:00.377Z,42.47
2022-11-26T17:57:28.291Z,36.72
2022-11-26T17:59:56.627Z,35.00
2022-11-26T18:02:24.281Z,37.17
2022-11-26T18:04:51.848Z,34.38
2022-11-26T18:07:20.845Z,37.90
2022-11-26T18:09:48.743Z,40.38
2022-11-26T18:12:24.449Z,34.60
2022-11-26T18:14:53.591Z,28.50
2022-11-26T18:17:21.860Z,43.67
2022-11-26T18:19:50.165Z,41.65
2022-11-26T18:22:21.702Z,36.70
2022-11-26T18:24:56.520Z,37.45
2022-11-26T18:27:26.135Z,39.35
2022-11-26T18:29:53.731Z,35.15
2022-11-26T18:32:21.698Z,44.25
2022-11-26T18:34:50.343Z,41.90
2022-11-26T18:37:18.928Z,38.45
2022-11-26T18:39:47.924Z,35.33
2022-11-26T18:42:35.997Z,39.90
2022-11-26T18:45:09.607Z,34.78
2022-11-26T18:47:37.570Z,30.85
2022-11-26T18:50:06.471Z,33.45
2022-11-26T18:52:34.362Z,33.42
2022-11-26T18:55:07.350Z,34.20
2022-11-26T18:57:35.396Z,34.35
2022-11-26T19:00:03.604Z,32.55
2022-11-26T19:02:31.307Z,34.47
2022-11-26T19:04:59.011Z,35.45
2022-11-26T19:07:34.606Z,37.08
2022-11-26T19:10:05.032Z,41.80
2022-11-26T19:12:33.149Z,34.30
2022-11-26T19:15:04.928Z,32.70
2022-11-26T19:17:32.757Z,38.17
2022-11-26T19:20:00.449Z,34.33
2022-11-26T19:22:28.196Z,33.35
2022-11-26T19:24:55.764Z,37.92
2022-11-26T19:27:24.772Z,31.73
2022-11-26T19:29:52.957Z,36.00
2022-11-26T19:32:20.730Z,40.83
2022-11-26T19:34:48.346Z,43.75
2022-11-26T19:37:16.079Z,42.30
2022-11-26T19:39:44.190Z,42.78
2022-11-26T19:42:11.932Z,53.20
2022-11-26T19:44:40.992Z,50.70
2022-11-26T19:47:08.827Z,49.63
2022-11-26T19:49:41.188Z,46.58
2022-11-26T19:52:09.116Z,48.45
2022-11-26T19:54:36.939Z,48.95
2022-11-26T19:57:04.973Z,49.97
2022-11-26T19:59:32.738Z,56.90
2022-11-26T20:02:01.970Z,56.90
2022-11-26T20:04:30.686Z,52.00
2022-11-26T20:06:59.024Z,52.58
2022-11-26T20:09:26.731Z,46.08
2022-11-26T20:11:54.568Z,56.67
2022-11-26T20:14:22.235Z,55.42
2022-11-26T20:16:49.922Z,52.58
2022-11-26T20:19:19.282Z,62.45
2022-11-26T20:21:46.992Z,53.67
2022-11-26T20:24:16.986Z,53.97
2022-11-26T20:26:48.423Z,48.72
2022-11-26T20:29:17.392Z,58.10
2022-11-26T20:31:47.466Z,59.15
2022-11-26T20:34:15.808Z,56.53
2022-11-26T20:36:45.230Z,49.88
2022-11-26T20:39:15.159Z,53.80
2022-11-26T20:41:43.278Z,48.42
2022-11-26T20:44:13.456Z,54.97
2022-11-26T20:46:41.985Z,50.53
2022-11-26T20:49:11.451Z,50.40
2022-11-26T20:51:39.552Z,53.63
2022-11-26T20:54:11.402Z,50.20
2022-11-26T20:56:39.143Z,51.35
2022-11-26T20:59:09.560Z,49.45
2022-11-26T21:01:37.803Z,51.30
2022-11-26T21:04:06.774Z,51.95
2022-11-26T21:06:35.509Z,60.85
2022-11-26T21:09:06.260Z,58.58
2022-11-26T21:11:37.491Z,48.80
2022-11-26T21:14:07.598Z,43.65
2022-11-26T21:16:38.521Z,52.83
2022-11-26T21:19:06.111Z,52.13
2022-11-26T21:21:33.802Z,49.47
2022-11-26T21:24:04.572Z,51.00
2022-11-26T21:26:32.743Z,54.75
2022-11-26T21:29:02.645Z,54.13
2022-11-26T21:31:31.591Z,51.95
2022-11-26T21:34:01.072Z,49.70
2022-11-26T21:36:30.409Z,43.70
2022-11-26T21:38:58.348Z,46.72
2022-11-26T21:41:26.333Z,47.28
2022-11-26T21:43:54.179Z,48.67
2022-11-26T21:46:27.049Z,51.70
2022-11-26T21:48:55.340Z,43.17
2022-11-26T21:51:24.530Z,46.67
2022-11-26T21:53:53.790Z,50.83
2022-11-26T21:56:23.236Z,44.60
2022-11-26T21:58:51.486Z,52.78
2022-11-26T22:01:24.281Z,46.83
2022-11-26T22:03:56.479Z,51.28
2022-11-26T22:06:24.761Z,44.00
2022-11-26T22:08:53.047Z,43.63
2022-11-26T22:11:23.299Z,41.90
2022-11-26T22:13:51.722Z,45.85
2022-11-26T22:16:21.525Z,46.53
2022-11-26T22:18:50.449Z,54.72
2022-11-26T22:21:21.397Z,48.22
2022-11-26T22:23:55.296Z,37.80
2022-11-26T22:26:23.309Z,40.70
2022-11-26T22:28:51.929Z,42.80
2022-11-26T22:31:22.074Z,48.05
2022-11-26T22:33:51.157Z,42.95
2022-11-26T22:36:20.184Z,43.53
2022-11-26T22:38:47.811Z,35.33
2022-11-26T22:41:16.177Z,45.10
2022-11-26T22:43:49.576Z,39.40
2022-11-26T22:46:19.622Z,36.15
2022-11-26T22:48:52.186Z,32.10
2022-11-26T22:51:21.816Z,38.13
2022-11-26T22:53:51.348Z,29.30
2022-11-26T22:56:21.686Z,31.45
2022-11-26T22:58:51.884Z,28.08
2022-11-26T23:01:21.586Z,38.40
2022-11-26T23:03:49.982Z,30.10
2022-11-26T23:06:19.279Z,32.42
2022-11-26T23:08:48.923Z,27.38
2022-11-26T23:11:19.984Z,31.45
2022-11-26T23:13:49.598Z,29.85
2022-11-26T23:16:18.124Z,31.17
2022-11-26T23:18:45.874Z,32.22
2022-11-26T23:21:15.970Z,23.70
2022-11-26T23:23:46.514Z,22.92
2022-11-26T23:26:24.879Z,24.30
2022-11-26T23:28:54.517Z,23.00
2022-11-26T23:31:24.075Z,19.63
2022-11-26T23:33:52.257Z,24.40
2022-11-26T23:36:21.054Z,24.00
2022-11-26T23:38:48.873Z,21.77
2022-11-26T23:41:18.111Z,20.17
2022-11-26T23:43:46.160Z,24.88
2022-11-26T23:46:17.460Z,20.63
2022-11-26T23:48:46.133Z,21.02
2022-11-26T23:51:16.270Z,16.35
2022-11-26T23:53:45.885Z,19.58
2022-11-26T23:56:17.077Z,16.98
2022-11-26T23:58:49.155Z,17.65
